Time;durP1;ratioP1;P1;durP2;ratioP2;P2;SDS_P1;SDS_P2;PMS_P1;PMS_P2;Temp;Humidity;BMP_temperature;BMP_pressure;BME280_temperature;BME280_humidity;BME280_pressure;Samples;Min_cycle;Max_cycle;Signal;HPM_P1;HPM_P2
2023/03/10 00:00:20;;;;;;;4.70;1.40;;;;;;;4.13;100.00;91151.13;2559151;23;20432;-85
2023/03/10 00:01:29;;;;;;;6.68;1.90;;;;;;;4.14;100.00;91147.31;2535555;23;20006;-84
2023/03/10 00:02:33;;;;;;;7.32;1.90;;;;;;;4.21;100.00;91155.75;2538624;23;20026;-85
2023/03/10 00:03:34;;;;;;;2.55;1.40;;;;;;;4.32;100.00;91154.72;2537259;23;20095;-85
2023/03/10 00:04:35;;;;;;;4.95;1.27;;;;;;;4.31;100.00;91155.91;2549327;23;20036;-85
2023/03/10 00:05:37;;;;;;;5.25;1.98;;;;;;;4.21;100.00;91149.75;2561238;23;20008;-83
2023/03/10 00:06:40;;;;;;;5.97;1.42;;;;;;;4.18;100.00;91153.97;2561544;23;20028;-84
2023/03/10 00:07:43;;;;;;;7.55;1.52;;;;;;;4.17;100.00;91155.16;2568567;23;19997;-84
2023/03/10 00:08:44;;;;;;;2.03;1.30;;;;;;;4.18;100.00;91155.88;2563747;23;20416;-85
2023/03/10 00:09:46;;;;;;;6.55;1.73;;;;;;;4.17;100.00;91157.78;2572407;23;20004;-85
2023/03/10 00:10:47;;;;;;;4.80;1.60;;;;;;;4.21;100.00;91153.13;2584710;23;20035;-84
2023/03/10 00:11:49;;;;;;;4.18;1.48;;;;;;;4.26;100.00;91154.53;2584646;23;20367;-84
2023/03/10 00:12:50;;;;;;;3.95;1.50;;;;;;;4.28;100.00;91154.81;2559188;23;20334;-85
2023/03/10 00:13:51;;;;;;;2.97;1.58;;;;;;;4.27;100.00;91154.09;2559593;23;20009;-84
2023/03/10 00:14:55;;;;;;;3.65;1.50;;;;;;;4.24;100.00;91140.97;2559893;23;20012;-85
2023/03/10 00:15:56;;;;;;;5.18;1.83;;;;;;;4.25;100.00;91142.44;2536040;23;20018;-85
2023/03/10 00:16:57;;;;;;;5.90;1.77;;;;;;;4.22;100.00;91140.66;2535024;23;20002;-85
2023/03/10 00:17:58;;;;;;;6.28;2.00;;;;;;;4.23;100.00;91139.50;2559387;23;20001;-85
2023/03/10 00:18:59;;;;;;;6.15;1.90;;;;;;;4.22;100.00;91132.72;2571815;23;20047;-85
2023/03/10 00:20:01;;;;;;;4.30;1.80;;;;;;;4.21;100.00;91139.91;2559459;23;20005;-85
2023/03/10 00:21:02;;;;;;;3.78;1.58;;;;;;;4.23;100.00;91134.94;2571341;23;20328;-85
2023/03/10 00:22:03;;;;;;;5.65;2.10;;;;;;;4.32;100.00;91134.31;2571503;23;20004;-85
2023/03/10 00:23:04;;;;;;;7.45;1.95;;;;;;;4.27;100.00;91117.06;2571536;23;20008;-85
2023/03/10 00:24:06;;;;;;;5.57;2.03;;;;;;;4.22;100.00;91128.19;2558717;23;20001;-85
2023/03/10 00:25:08;;;;;;;5.80;2.03;;;;;;;4.27;100.00;91125.00;2546944;23;20005;-85
2023/03/10 00:26:12;;;;;;;3.42;1.70;;;;;;;4.31;100.00;91126.81;2559771;23;20005;-85
2023/03/10 00:27:13;;;;;;;5.45;1.80;;;;;;;4.44;100.00;91133.56;2571484;23;20095;-85
2023/03/10 00:28:14;;;;;;;5.80;1.90;;;;;;;4.38;100.00;91134.50;2571161;23;20028;-85
2023/03/10 00:29:16;;;;;;;6.07;2.10;;;;;;;4.26;100.00;91131.47;2571243;23;20008;-85
2023/03/10 00:30:17;;;;;;;7.72;2.30;;;;;;;4.24;100.00;91131.13;2559341;23;20092;-85
2023/03/10 00:31:21;;;;;;;5.82;1.67;;;;;;;4.37;100.00;91135.66;2571363;23;20007;-85
2023/03/10 00:32:22;;;;;;;4.13;2.13;;;;;;;4.34;100.00;91142.53;2571284;23;20072;-85
2023/03/10 00:33:23;;;;;;;6.18;1.70;;;;;;;4.29;100.00;91140.44;2546712;23;20060;-86
2023/03/10 00:34:24;;;;;;;8.65;2.25;;;;;;;4.25;100.00;91148.47;2559675;23;20055;-85
2023/03/10 00:35:26;;;;;;;5.13;1.90;;;;;;;4.57;100.00;91141.47;2584437;23;19999;-84
2023/03/10 00:36:28;;;;;;;2.80;1.75;;;;;;;4.39;100.00;91144.69;2572157;23;20362;-85
2023/03/10 00:37:29;;;;;;;3.70;1.80;;;;;;;4.29;100.00;91145.72;2560128;23;20353;-85
2023/03/10 00:38:31;;;;;;;4.38;1.73;;;;;;;4.23;100.00;91140.22;2571758;23;20005;-85
2023/03/10 00:39:35;;;;;;;2.88;1.58;;;;;;;4.31;100.00;91138.13;2559212;23;20012;-85
2023/03/10 00:40:36;;;;;;;4.80;1.50;;;;;;;4.31;100.00;91140.75;2559194;23;20001;-85
2023/03/10 00:41:38;;;;;;;6.25;2.15;;;;;;;4.34;100.00;91144.44;2570838;23;20000;-86
2023/03/10 00:42:40;;;;;;;6.55;1.98;;;;;;;4.29;100.00;91151.75;2570649;23;20005;-85
2023/03/10 00:43:42;;;;;;;6.15;1.90;;;;;;;4.24;100.00;91156.84;2570959;23;20008;-84
2023/03/10 00:44:43;;;;;;;5.78;2.10;;;;;;;4.28;100.00;91144.25;2570828;23;20129;-86
2023/03/10 00:45:44;;;;;;;5.43;1.70;;;;;;;4.68;100.00;91146.41;2558244;23;20357;-86
2023/03/10 00:46:45;;;;;;;4.82;1.40;;;;;;;4.63;100.00;91145.06;2533996;23;20092;-84
2023/03/10 00:47:46;;;;;;;2.67;1.30;;;;;;;4.64;100.00;91146.53;2558537;23;20074;-84
2023/03/10 00:48:48;;;;;;;2.72;1.10;;;;;;;4.88;100.00;91146.91;2583122;23;20039;-86
2023/03/10 00:49:50;;;;;;;3.92;1.33;;;;;;;4.87;100.00;91144.69;2570763;23;20008;-84
2023/03/10 00:50:51;;;;;;;4.47;1.50;;;;;;;5.15;100.00;91140.38;2570230;23;20503;-86
2023/03/10 00:51:52;;;;;;;5.05;1.25;;;;;;;5.05;100.00;91137.66;2557640;23;20064;-85
2023/03/10 00:52:53;;;;;;;8.75;1.40;;;;;;;5.07;100.00;91139.88;2545307;23;20005;-86
2023/03/10 00:53:54;;;;;;;9.07;1.38;;;;;;;5.28;100.00;91136.50;2545228;23;20017;-86
2023/03/10 00:54:55;;;;;;;7.15;1.30;;;;;;;5.53;100.00;91133.00;2570510;23;20079;-85
2023/03/10 00:56:10;;;;;;;6.13;1.30;;;;;;;5.56;100.00;91129.47;2570365;23;20009;-85
2023/03/10 00:57:11;;;;;;;4.82;1.10;;;;;;;5.72;100.00;91131.19;2570249;23;20512;-85
2023/03/10 00:58:13;;;;;;;6.00;1.13;;;;;;;5.61;100.00;91122.13;2558041;23;20005;-85
2023/03/10 00:59:14;;;;;;;4.43;1.00;;;;;;;5.53;100.00;91117.09;2557932;23;20598;-85
2023/03/10 01:00:34;;;;;;;5.78;0.98;;;;;;;5.58;100.00;91115.81;2558493;23;20436;-86
2023/03/10 01:01:38;;;;;;;4.95;0.93;;;;;;;5.49;100.00;91123.69;2550296;23;20371;-85
2023/03/10 01:02:39;;;;;;;3.78;0.90;;;;;;;5.43;100.00;91120.09;2552878;23;20017;-85
2023/03/10 01:03:42;;;;;;;3.05;0.88;;;;;;;5.70;100.00;91130.88;2574809;23;20011;-84
2023/03/10 01:04:43;;;;;;;1.42;0.90;;;;;;;5.71;100.00;91126.34;2563203;23;20100;-85
2023/03/10 01:05:44;;;;;;;2.85;0.90;;;;;;;5.57;100.00;91114.31;2549080;23;20009;-85
2023/03/10 01:06:46;;;;;;;3.38;1.00;;;;;;;5.62;100.00;91124.38;2548156;23;20015;-85
2023/03/10 01:07:47;;;;;;;2.83;0.80;;;;;;;5.63;100.00;91120.53;2560487;23;20083;-85
2023/03/10 01:08:49;;;;;;;2.72;1.08;;;;;;;5.73;100.00;91118.69;2559715;23;20005;-85
2023/03/10 01:09:50;;;;;;;2.67;1.38;;;;;;;5.93;100.00;91118.38;2572238;23;20000;-85
2023/03/10 01:10:52;;;;;;;2.38;0.80;;;;;;;5.91;100.00;91123.34;2572178;23;20014;-85
2023/03/10 01:11:54;;;;;;;2.55;1.00;;;;;;;5.84;100.00;91116.38;2571724;23;20104;-86
2023/03/10 01:12:56;;;;;;;3.88;0.90;;;;;;;5.82;100.00;91121.38;2558657;23;20005;-86
2023/03/10 01:14:00;;;;;;;1.05;0.70;;;;;;;5.82;100.00;91131.97;2558849;23;20510;-87
2023/03/10 01:15:02;;;;;;;2.42;0.77;;;;;;;6.01;100.00;91120.34;2559585;23;20087;-85
2023/03/10 01:16:03;;;;;;;2.58;0.80;;;;;;;5.79;100.00;91116.94;2546681;23;20061;-87
2023/03/10 01:17:04;;;;;;;4.15;0.80;;;;;;;5.69;100.00;91131.31;2559439;23;20005;-87
2023/03/10 01:18:06;;;;;;;4.15;0.70;;;;;;;5.72;100.00;91122.50;2583760;23;20007;-86
2023/03/10 01:19:08;;;;;;;1.38;0.60;;;;;;;5.71;100.00;91129.72;2558786;23;20526;-85
2023/03/10 01:20:13;;;;;;;3.92;0.80;;;;;;;6.02;100.00;91119.16;2558296;23;20008;-86
2023/03/10 01:21:18;;;;;;;3.53;0.80;;;;;;;5.84;100.00;91134.94;2558795;23;20008;-85
2023/03/10 01:22:19;;;;;;;2.72;0.90;;;;;;;5.67;100.00;91123.81;2558313;23;20012;-85
2023/03/10 01:23:22;;;;;;;0.63;0.50;;;;;;;5.75;100.00;91129.56;2557762;23;20028;-86
2023/03/10 01:24:25;;;;;;;7.88;0.70;;;;;;;5.79;100.00;91124.88;2558410;23;19998;-86
2023/03/10 01:25:28;;;;;;;3.13;0.85;;;;;;;5.94;100.00;91123.22;2569909;23;20005;-85
2023/03/10 01:26:30;;;;;;;2.22;0.82;;;;;;;5.74;100.00;91128.84;2570063;23;20005;-85
2023/03/10 01:27:31;;;;;;;2.90;0.80;;;;;;;5.73;100.00;91122.06;2557697;23;20092;-86
2023/03/10 01:28:32;;;;;;;5.15;0.82;;;;;;;5.61;100.00;91114.19;2557565;23;20004;-87
2023/03/10 01:29:33;;;;;;;3.22;0.52;;;;;;;5.77;100.00;91122.69;2557517;23;20297;-84
2023/03/10 01:30:34;;;;;;;3.35;0.70;;;;;;;5.72;100.00;91125.16;2569456;23;20012;-85
2023/03/10 01:31:36;;;;;;;1.48;0.50;;;;;;;5.80;100.00;91118.44;2557287;23;20016;-85
2023/03/10 01:32:39;;;;;;;1.80;0.50;;;;;;;5.82;100.00;91108.84;2533366;23;20077;-84
2023/03/10 01:33:42;;;;;;;3.70;0.70;;;;;;;5.75;100.00;91118.97;2545910;23;20012;-85
2023/03/10 01:34:44;;;;;;;3.17;0.47;;;;;;;5.64;100.00;91100.81;2557826;23;20005;-83
2023/03/10 01:35:45;;;;;;;3.83;0.52;;;;;;;5.66;100.00;91110.97;2557249;23;20447;-84
2023/03/10 01:36:46;;;;;;;1.40;0.50;;;;;;;5.51;100.00;91092.94;2569918;23;20005;-85
2023/03/10 01:37:47;;;;;;;3.28;0.60;;;;;;;5.62;100.00;91089.91;2557959;23;20005;-86
2023/03/10 01:38:49;;;;;;;1.17;0.40;;;;;;;5.42;100.00;91087.59;2569793;23;20007;-83
2023/03/10 01:39:50;;;;;;;1.60;0.82;;;;;;;5.43;100.00;91083.75;2569812;23;20427;-86
2023/03/10 01:40:51;;;;;;;3.65;0.60;;;;;;;5.54;100.00;91088.69;2557651;23;20001;-85
2023/03/10 01:41:53;;;;;;;0.80;0.30;;;;;;;5.62;100.00;91083.84;2557208;23;20008;-86
2023/03/10 01:43:18;;;;;;;0.85;0.40;;;;;;;5.71;100.00;91081.28;2570113;23;20007;-86
2023/03/10 01:44:20;;;;;;;0.30;0.30;;;;;;;5.60;100.00;91072.97;2570207;23;20108;-85
2023/03/10 01:45:21;;;;;;;0.68;0.30;;;;;;;5.52;100.00;91080.41;2557343;23;20015;-85
2023/03/10 01:46:50;;;;;;;0.85;0.40;;;;;;;5.55;100.00;91072.34;2545159;23;20050;-86
2023/03/10 01:47:51;;;;;;;1.27;0.40;;;;;;;5.39;100.00;91080.50;2563328;23;20005;-86
2023/03/10 01:48:56;;;;;;;1.30;0.30;;;;;;;5.29;100.00;91074.41;2557702;23;20005;-85
2023/03/10 01:49:57;;;;;;;0.47;0.30;;;;;;;5.53;100.00;91068.66;2558115;23;20064;-86
2023/03/10 01:50:59;;;;;;;0.43;0.30;;;;;;;5.51;100.00;91069.09;2557814;23;20001;-87
2023/03/10 01:52:09;;;;;;;0.77;0.22;;;;;;;5.61;100.00;91071.78;2557653;23;20000;-86
2023/03/10 01:53:13;;;;;;;1.20;0.30;;;;;;;5.41;100.00;91072.88;2547230;23;20140;-86
2023/03/10 01:54:19;;;;;;;0.45;0.30;;;;;;;5.28;100.00;91066.91;2546570;23;20009;-86
2023/03/10 01:55:29;;;;;;;2.40;0.30;;;;;;;5.29;100.00;91066.44;2569782;23;20008;-86
2023/03/10 01:56:31;;;;;;;0.55;0.38;;;;;;;5.22;100.00;91071.25;2559863;23;20011;-85
2023/03/10 01:57:39;;;;;;;0.40;0.32;;;;;;;5.10;100.00;91064.88;2570235;23;20027;-85
2023/03/10 01:58:44;;;;;;;1.48;0.45;;;;;;;5.03;100.00;91065.84;2569925;23;20032;-87
2023/03/10 01:59:46;;;;;;;0.95;0.40;;;;;;;5.00;100.00;91055.38;2558629;23;20012;-86
2023/03/10 02:00:51;;;;;;;1.02;0.30;;;;;;;5.22;100.00;91050.84;2557260;23;20036;-86
2023/03/10 02:01:54;;;;;;;1.02;0.40;;;;;;;5.10;100.00;91059.56;2558266;23;20083;-86
2023/03/10 02:03:07;;;;;;;1.08;0.60;;;;;;;5.07;100.00;91065.00;2558169;23;20364;-85
2023/03/10 02:04:18;;;;;;;0.85;0.40;;;;;;;5.05;100.00;91052.19;2560315;23;20016;-87
2023/03/10 02:05:20;;;;;;;1.00;0.30;;;;;;;5.04;100.00;91050.69;2570400;23;20008;-85
2023/03/10 02:06:22;;;;;;;0.30;0.30;;;;;;;4.97;100.00;91049.03;2558313;23;20035;-84
2023/03/10 02:07:29;;;;;;;1.77;0.32;;;;;;;4.99;100.00;91057.28;2545622;23;20456;-85
2023/03/10 02:08:41;;;;;;;1.70;0.40;;;;;;;5.04;100.00;91054.06;2547386;23;20005;-86
2023/03/10 02:09:45;;;;;;;1.13;0.30;;;;;;;5.04;100.00;91048.78;2547776;23;20009;-88
2023/03/10 02:10:47;;;;;;;1.13;0.20;;;;;;;5.18;100.00;91049.44;2546902;23;20005;-86
2023/03/10 02:11:48;;;;;;;2.38;0.30;;;;;;;5.18;100.00;91044.16;2569860;23;20020;-85
2023/03/10 02:12:49;;;;;;;0.70;0.40;;;;;;;5.25;100.00;91051.88;2557294;23;20005;-86
2023/03/10 02:13:50;;;;;;;0.52;0.30;;;;;;;5.12;100.00;91041.34;2545048;23;20001;-85
2023/03/10 02:14:52;;;;;;;1.73;0.35;;;;;;;5.08;100.00;91043.38;2545802;23;20088;-85
2023/03/10 02:15:53;;;;;;;1.27;0.40;;;;;;;5.04;100.00;91037.44;2562626;23;20147;-84
2023/03/10 02:16:55;;;;;;;0.55;0.40;;;;;;;5.13;100.00;91037.50;2558382;23;20013;-88
2023/03/10 02:19:56;;;;;;;;;;;;;;;5.43;100.00;91028.13;2108326;28;20178;-79
2023/03/10 02:30:44;;;;;;;1.95;0.60;;;;;;;5.38;100.00;91015.44;2047469;28;20934;-78
2023/03/10 02:32:02;;;;;;;2.22;0.80;;;;;;;5.46;100.00;91011.38;2054292;28;20525;-77
2023/03/10 02:33:40;;;;;;;4.13;0.90;;;;;;;5.60;100.00;91004.06;2055966;28;20052;-77
2023/03/10 02:35:52;;;;;;;3.58;0.70;;;;;;;5.72;100.00;91011.19;2085052;28;20037;-81
2023/03/10 02:38:07;;;;;;;1.85;0.80;;;;;;;5.59;100.00;91010.53;2101579;28;20040;-79
2023/03/10 02:40:28;;;;;;;;;;;;;;;;;;;;;
2023/03/10 02:45:01;;;;;;;;;;;;;;;;;;;;;
2023/03/10 02:46:45;;;;;;;5.05;0.93;;;;;;;6.23;100.00;91014.16;1979941;29;20078;-77
2023/03/10 02:57:45;;;;;;;3.53;1.48;;;;;;;5.96;100.00;91011.44;1995523;29;20095;-80
2023/03/10 03:24:30;;;;;;;4.82;0.88;;;;;;;5.92;100.00;90950.56;2563443;23;20040;-84
2023/03/10 03:25:39;;;;;;;1.65;0.60;;;;;;;6.04;100.00;90962.97;2534149;23;20028;-80
2023/03/10 03:26:43;;;;;;;4.60;0.98;;;;;;;5.87;100.00;90945.09;2512424;23;20100;-83
2023/03/10 03:27:45;;;;;;;3.05;0.70;;;;;;;5.72;100.00;90953.59;2508869;23;20469;-81
2023/03/10 03:28:50;;;;;;;4.47;1.00;;;;;;;5.62;100.00;90948.69;2510375;23;20478;-83
2023/03/10 03:29:52;;;;;;;4.65;1.08;;;;;;;5.81;100.00;90947.59;2510774;23;20018;-82
2023/03/10 03:30:54;;;;;;;2.20;0.85;;;;;;;6.15;100.00;90959.19;2521759;23;20386;-84
2023/03/10 03:31:56;;;;;;;2.05;0.60;;;;;;;5.88;100.00;90952.59;2521159;23;20121;-83
2023/03/10 03:33:00;;;;;;;3.55;0.98;;;;;;;5.80;100.00;90970.72;2522094;23;20002;-84
2023/03/10 03:34:03;;;;;;;2.25;0.75;;;;;;;5.70;100.00;90966.53;2510422;23;20264;-82
2023/03/10 03:35:18;;;;;;;2.67;0.60;;;;;;;5.74;100.00;90964.50;2499478;23;20089;-83
2023/03/10 03:36:19;;;;;;;0.82;0.60;;;;;;;5.92;100.00;90960.44;2502780;23;20407;-82
2023/03/10 03:37:22;;;;;;;2.67;0.70;;;;;;;5.97;100.00;90963.28;2498124;23;20059;-81
2023/03/10 03:38:24;;;;;;;2.70;0.70;;;;;;;5.86;100.00;90957.63;2510795;23;20015;-83
2023/03/10 03:39:30;;;;;;;4.20;0.80;;;;;;;5.74;100.00;90961.09;2521951;23;20892;-82
2023/03/10 03:40:37;;;;;;;2.83;0.63;;;;;;;5.73;100.00;90962.28;2523006;23;20418;-83
2023/03/10 03:41:42;;;;;;;2.25;0.60;;;;;;;6.04;100.00;90964.91;2532398;23;20479;-83
2023/03/10 03:42:47;;;;;;;4.43;0.85;;;;;;;6.00;100.00;90966.94;2522072;23;20065;-83
2023/03/10 03:43:48;;;;;;;3.92;0.88;;;;;;;5.84;100.00;90967.16;2522230;23;20562;-83
2023/03/10 03:44:49;;;;;;;3.03;0.82;;;;;;;5.89;100.00;90967.34;2510020;23;20010;-83
2023/03/10 03:45:50;;;;;;;2.45;0.70;;;;;;;6.00;100.00;90969.59;2498270;23;20010;-82
2023/03/10 03:46:54;;;;;;;1.58;0.68;;;;;;;5.94;100.00;90961.50;2498251;23;20013;-84
2023/03/10 03:47:55;;;;;;;1.05;0.50;;;;;;;5.80;100.00;90969.97;2511041;23;20003;-83
2023/03/10 03:48:56;;;;;;;2.58;0.68;;;;;;;5.70;100.00;90965.81;2522146;23;20013;-82
2023/03/10 03:49:57;;;;;;;3.30;0.55;;;;;;;5.69;100.00;90961.69;2509690;23;20003;-82
2023/03/10 03:51:04;;;;;;;2.60;0.73;;;;;;;5.65;100.00;90961.09;2499083;23;20074;-83
2023/03/10 03:52:11;;;;;;;1.55;0.70;;;;;;;5.53;100.00;90960.78;2511717;23;20473;-83
2023/03/10 03:53:12;;;;;;;2.92;0.70;;;;;;;6.06;100.00;90973.16;2522085;23;20438;-82
2023/03/10 03:54:28;;;;;;;3.72;0.70;;;;;;;6.19;100.00;90975.66;2509822;23;20882;-83
2023/03/10 03:55:29;;;;;;;4.47;0.73;;;;;;;6.33;100.00;90961.84;2516578;23;20013;-82
2023/03/10 03:56:30;;;;;;;3.05;0.50;;;;;;;6.29;100.00;90955.94;2522261;23;20014;-82
2023/03/10 03:57:31;;;;;;;2.30;0.70;;;;;;;5.99;100.00;90952.22;2509445;23;20320;-82
2023/03/10 03:58:32;;;;;;;2.13;0.60;;;;;;;6.21;100.00;90949.44;2509815;23;20006;-85
2023/03/10 03:59:34;;;;;;;1.88;0.82;;;;;;;5.98;100.00;90948.09;2509675;23;20033;-82
2023/03/10 04:00:39;;;;;;;2.05;0.60;;;;;;;5.94;100.00;90939.53;2498166;23;20011;-84
2023/03/10 04:01:43;;;;;;;1.90;0.50;;;;;;;5.74;100.00;90950.50;2511602;23;19998;-82
2023/03/10 04:02:53;;;;;;;3.00;0.60;;;;;;;5.76;100.00;90953.47;2521465;23;20014;-82
2023/03/10 04:04:03;;;;;;;3.13;0.70;;;;;;;5.62;100.00;90969.91;2523439;23;20505;-86
2023/03/10 04:05:12;;;;;;;2.75;0.90;;;;;;;5.99;100.00;90952.94;2512712;23;20030;-82
2023/03/10 04:06:16;;;;;;;5.30;0.95;;;;;;;5.77;100.00;90947.72;2499733;23;20007;-83
2023/03/10 04:07:18;;;;;;;2.75;0.80;;;;;;;6.10;100.00;90965.03;2499440;23;20011;-83
2023/03/10 04:08:19;;;;;;;3.08;0.70;;;;;;;6.18;100.00;90955.63;2509890;23;20037;-83
2023/03/10 04:09:21;;;;;;;2.40;0.60;;;;;;;6.22;100.00;90951.66;2509900;23;20509;-85
2023/03/10 04:10:27;;;;;;;1.55;0.50;;;;;;;6.19;100.00;90947.25;2497984;23;20007;-80
2023/03/10 04:11:41;;;;;;;1.75;0.77;;;;;;;6.14;100.00;90952.38;2523961;23;20017;-84
2023/03/10 04:12:50;;;;;;;5.40;1.63;;;;;;;5.81;100.00;90944.94;2522144;23;20002;-84
2023/03/10 04:13:57;;;;;;;5.43;1.10;;;;;;;5.68;100.00;90955.66;2522855;23;20093;-84
2023/03/10 04:14:58;;;;;;;1.35;0.60;;;;;;;5.63;100.00;90953.56;2521835;23;20463;-83
2023/03/10 04:15:59;;;;;;;1.88;0.82;;;;;;;5.58;100.00;90948.13;2498416;23;20334;-84
2023/03/10 04:17:07;;;;;;;1.50;0.57;;;;;;;5.52;100.00;90945.28;2510671;23;20065;-84
2023/03/10 04:18:10;;;;;;;2.45;0.70;;;;;;;5.63;100.00;90945.63;2510579;23;20090;-81
2023/03/10 04:19:12;;;;;;;0.95;0.40;;;;;;;5.78;100.00;90945.81;2498782;23;20330;-82
2023/03/10 04:20:13;;;;;;;1.15;0.50;;;;;;;5.62;100.00;90948.69;2497984;23;20007;-82
2023/03/10 04:21:16;;;;;;;1.25;0.60;;;;;;;5.60;100.00;90937.81;2509656;23;20387;-83
2023/03/10 04:22:19;;;;;;;2.78;0.60;;;;;;;5.51;100.00;90941.91;2521486;23;20070;-83
2023/03/10 04:23:21;;;;;;;1.02;0.60;;;;;;;5.60;100.00;90933.25;2506886;23;20009;-82
2023/03/10 04:24:22;;;;;;;2.20;0.50;;;;;;;5.60;100.00;90945.75;2495369;23;20026;-82
2023/03/10 04:25:23;;;;;;;1.23;0.43;;;;;;;5.65;100.00;90934.59;2495109;23;20618;-82
2023/03/10 04:26:25;;;;;;;2.60;0.52;;;;;;;5.81;100.00;90942.28;2483728;23;20008;-83
2023/03/10 04:27:26;;;;;;;2.13;0.57;;;;;;;5.68;100.00;90941.66;2495580;23;20003;-82
2023/03/10 04:28:27;;;;;;;1.48;0.60;;;;;;;5.67;100.00;90932.97;2495287;23;20453;-82
2023/03/10 04:29:37;;;;;;;1.45;0.52;;;;;;;5.76;100.00;90935.66;2507340;23;20033;-84
2023/03/10 04:30:58;;;;;;;1.88;0.50;;;;;;;5.73;100.00;90938.44;2523733;23;20006;-83
2023/03/10 04:32:00;;;;;;;0.98;0.40;;;;;;;5.60;100.00;90935.16;2517472;23;20015;-84
2023/03/10 04:33:13;;;;;;;0.50;0.30;;;;;;;5.55;100.00;90936.47;2518298;23;20006;-85
2023/03/10 04:34:14;;;;;;;2.15;0.60;;;;;;;5.46;100.00;90933.78;2508709;23;20017;-84
2023/03/10 04:35:16;;;;;;;4.50;3.45;;;;;;;5.46;100.00;90923.94;2495294;23;20007;-85
2023/03/10 04:36:21;;;;;;;464.92;228.27;;;;;;;5.42;100.00;90930.53;2507713;23;20014;-84
2023/03/10 04:37:22;;;;;;;1487.57;652.45;;;;;;;5.40;100.00;90907.16;2531228;23;20006;-83
2023/03/10 04:38:23;;;;;;;418.52;146.32;;;;;;;5.32;100.00;90918.44;2531063;23;20009;-81
2023/03/10 04:39:24;;;;;;;70.38;26.05;;;;;;;5.29;100.00;90917.41;2507164;23;20006;-82
2023/03/10 04:40:47;;;;;;;11.30;5.20;;;;;;;5.25;100.00;90908.84;2518939;23;20327;-83
2023/03/10 04:42:09;;;;;;;30.05;11.05;;;;;;;5.23;100.00;90904.00;2506324;23;20149;-84
2023/03/10 04:43:31;;;;;;;9.85;3.00;;;;;;;5.41;100.00;90903.31;2505879;23;20434;-83
2023/03/10 04:44:34;;;;;;;7.65;2.47;;;;;;;5.33;100.00;90910.06;2510947;23;20016;-82
2023/03/10 04:45:35;;;;;;;2.38;0.80;;;;;;;5.55;100.00;90907.31;2506847;23;20086;-85
2023/03/10 04:46:39;;;;;;;1.02;0.60;;;;;;;5.69;100.00;90895.44;2483811;23;20015;-82
2023/03/10 04:47:41;;;;;;;1.23;0.60;;;;;;;5.73;100.00;90898.69;2484915;23;20007;-83
2023/03/10 04:48:45;;;;;;;2.90;0.57;;;;;;;5.93;100.00;90898.31;2493263;23;20262;-82
2023/03/10 04:49:47;;;;;;;1.42;0.73;;;;;;;5.69;100.00;90906.03;2495656;23;20455;-83
2023/03/10 04:50:58;;;;;;;1.77;0.65;;;;;;;5.45;100.00;90906.56;2494965;23;20007;-84
2023/03/10 04:51:59;;;;;;;3.13;0.50;;;;;;;5.44;100.00;90907.00;2508364;23;20390;-84
2023/03/10 04:53:00;;;;;;;1.88;0.50;;;;;;;5.26;100.00;90903.09;2506606;23;20450;-83
2023/03/10 04:54:19;;;;;;;;;;;;;;;;;;;;;
2023/03/10 04:55:21;;;;;;;1.25;0.50;;;;;;;5.30;100.00;90908.28;2510786;23;20538;-82
2023/03/10 04:56:22;;;;;;;1.60;0.60;;;;;;;5.26;100.00;90910.31;2507124;23;20009;-84
2023/03/10 04:57:23;;;;;;;1.80;0.52;;;;;;;5.35;100.00;90909.59;2507242;23;20103;-83
2023/03/10 04:58:26;;;;;;;0.68;0.50;;;;;;;5.36;100.00;90900.50;2483660;23;20148;-82
2023/03/10 04:59:37;;;;;;;6.47;1.13;;;;;;;5.25;100.00;90903.53;2484858;23;20039;-83
2023/03/10 05:00:39;;;;;;;2.22;0.70;;;;;;;5.22;100.00;90907.81;2508571;23;20003;-83
2023/03/10 05:01:41;;;;;;;5.47;1.30;;;;;;;5.14;100.00;90903.97;2506410;23;20054;-83
2023/03/10 05:02:43;;;;;;;3.35;1.08;;;;;;;5.10;100.00;90899.97;2506482;23;20003;-82
2023/03/10 05:03:44;;;;;;;3.20;0.80;;;;;;;5.05;100.00;90901.28;2495057;23;20019;-82
2023/03/10 05:04:45;;;;;;;2.20;1.02;;;;;;;5.01;100.00;90900.66;2494958;23;20226;-82
2023/03/10 05:05:46;;;;;;;3.47;0.80;;;;;;;4.98;100.00;90896.22;2495445;23;20006;-83
2023/03/10 05:06:51;;;;;;;2.15;0.68;;;;;;;4.96;100.00;90895.91;2506052;23;20033;-82
2023/03/10 05:07:52;;;;;;;2.13;0.63;;;;;;;5.02;100.00;90902.13;2507384;23;20434;-82
2023/03/10 05:08:53;;;;;;;2.85;1.23;;;;;;;4.95;100.00;90897.81;2495760;23;20010;-82
2023/03/10 05:09:54;;;;;;;2.67;0.82;;;;;;;4.95;100.00;90892.53;2495150;23;20093;-82
2023/03/10 05:10:55;;;;;;;2.13;1.00;;;;;;;4.91;100.00;90886.63;2506075;23;20006;-83
2023/03/10 05:11:56;;;;;;;2.95;1.27;;;;;;;4.88;100.00;90897.38;2505649;23;20049;-84
2023/03/10 05:12:57;;;;;;;3.28;0.80;;;;;;;4.87;100.00;90891.31;2506487;23;20006;-83
2023/03/10 05:13:58;;;;;;;1.38;1.02;;;;;;;4.88;100.00;90879.56;2507104;23;20427;-82
2023/03/10 05:14:59;;;;;;;4.20;3.70;;;;;;;4.89;100.00;90893.53;2495404;23;20031;-83
2023/03/10 05:16:00;;;;;;;3.90;2.20;;;;;;;4.87;100.00;90880.72;2494876;23;20317;-83
2023/03/10 05:17:02;;;;;;;2.67;2.08;;;;;;;4.91;100.00;90888.53;2482755;23;20060;-82
2023/03/10 05:18:04;;;;;;;2.83;1.10;;;;;;;4.88;100.00;90884.88;2495501;23;20836;-81
2023/03/10 05:19:05;;;;;;;2.67;0.98;;;;;;;4.90;100.00;90879.88;2506577;23;20367;-83
2023/03/10 05:20:08;;;;;;;2.38;1.20;;;;;;;4.88;100.00;90865.59;2506537;23;20070;-82
2023/03/10 05:21:10;;;;;;;3.58;2.15;;;;;;;5.00;100.00;90881.41;2494505;23;20041;-84
2023/03/10 05:22:11;;;;;;;3.65;1.92;;;;;;;5.00;100.00;90878.00;2482681;23;20007;-83
2023/03/10 05:23:12;;;;;;;4.32;2.42;;;;;;;4.94;100.00;90879.75;2494901;23;20345;-82
2023/03/10 05:24:13;;;;;;;3.88;2.60;;;;;;;4.96;100.00;90866.78;2503940;23;20019;-82
2023/03/10 05:25:14;;;;;;;4.10;2.58;;;;;;;4.89;100.00;90861.78;2506421;23;20018;-82
2023/03/10 05:26:15;;;;;;;8.05;5.93;;;;;;;4.97;100.00;90865.66;2506772;23;20013;-84
2023/03/10 05:27:18;;;;;;;5.70;4.00;;;;;;;4.94;100.00;90864.59;2495219;23;20067;-83
2023/03/10 05:28:20;;;;;;;2.53;2.08;;;;;;;5.00;100.00;90857.56;2507253;23;20522;-84
2023/03/10 05:29:21;;;;;;;3.20;1.77;;;;;;;4.95;100.00;90844.88;2507342;23;20045;-81
2023/03/10 05:30:23;;;;;;;2.47;2.08;;;;;;;4.88;100.00;90837.22;2506580;23;20038;-83
2023/03/10 05:31:26;;;;;;;2.50;2.30;;;;;;;4.87;100.00;90840.28;2506260;23;20392;-83
2023/03/10 05:32:28;;;;;;;2.53;2.33;;;;;;;4.88;100.00;90837.22;2506746;23;20007;-83
2023/03/10 05:33:29;;;;;;;2.35;1.30;;;;;;;5.29;100.00;90835.28;2518105;23;20149;-83
2023/03/10 05:34:31;;;;;;;1.90;1.58;;;;;;;5.23;100.00;90839.69;2518278;23;20430;-82
2023/03/10 05:35:32;;;;;;;2.88;1.00;;;;;;;5.14;100.00;90832.47;2530921;23;20006;-84
2023/03/10 05:36:33;;;;;;;0.93;0.90;;;;;;;5.27;100.00;90835.75;2518053;23;20009;-84
2023/03/10 05:37:39;;;;;;;1.73;0.70;;;;;;;5.30;100.00;90836.75;2507217;23;20069;-85
2023/03/10 05:38:40;;;;;;;2.08;1.88;;;;;;;5.31;100.00;90835.56;2519600;23;20037;-84
2023/03/10 05:39:45;;;;;;;2.60;0.80;;;;;;;5.37;100.00;90820.59;2506916;23;20025;-83
2023/03/10 05:40:46;;;;;;;4.25;2.10;;;;;;;5.32;100.00;90829.13;2507349;23;20026;-82
2023/03/10 05:41:47;;;;;;;1.42;0.90;;;;;;;5.61;100.00;90822.69;2518460;23;20002;-84
2023/03/10 05:42:49;;;;;;;1.60;1.50;;;;;;;5.50;100.00;90820.47;2518746;23;20010;-83
2023/03/10 05:43:50;;;;;;;2.60;1.77;;;;;;;5.44;100.00;90807.06;2506477;23;20002;-83
2023/03/10 05:44:51;;;;;;;2.60;1.20;;;;;;;5.52;100.00;90821.50;2530843;23;20006;-81
2023/03/10 05:46:05;;;;;;;1.52;0.63;;;;;;;5.46;100.00;90825.91;2529992;23;20437;-84
2023/03/10 05:47:13;;;;;;;1.85;0.88;;;;;;;5.39;100.00;90820.88;2508878;23;20098;-83
2023/03/10 05:48:19;;;;;;;1.65;1.00;;;;;;;5.34;100.00;90815.44;2493962;23;20039;-84
2023/03/10 05:49:26;;;;;;;1.38;0.60;;;;;;;5.28;100.00;90816.00;2502083;23;20014;-83
2023/03/10 05:50:29;;;;;;;1.15;0.50;;;;;;;5.36;100.00;90805.88;2501315;23;20364;-83
2023/03/10 05:51:30;;;;;;;0.80;0.50;;;;;;;5.44;100.00;90811.63;2490519;23;20015;-83
2023/03/10 05:52:39;;;;;;;0.90;0.50;;;;;;;5.41;100.00;90820.47;2502126;23;20081;-82
2023/03/10 05:53:41;;;;;;;1.45;0.50;;;;;;;5.33;100.00;90817.34;2500626;23;20010;-81
2023/03/10 05:54:42;;;;;;;1.77;0.50;;;;;;;5.17;100.00;90807.75;2501007;23;20228;-83
2023/03/10 05:55:44;;;;;;;0.82;0.50;;;;;;;5.22;100.00;90811.72;2514615;23;20011;-82